sensor_id;sensor_type;location;lat;lon;timestamp;pressure;altitude;pressure_sealevel;temperature;humidity
53550;BME280;67273;52.914;-0.982;2023-03-21T00:00:21;100679.06;;;19.38;46.04
53550;BME280;67273;52.914;-0.982;2023-03-21T00:02:46;100681.78;;;19.38;46.04
53550;BME280;67273;52.914;-0.982;2023-03-21T00:05:12;100685.59;;;19.37;45.81
53550;BME280;67273;52.914;-0.982;2023-03-21T00:07:38;100686.41;;;19.37;45.95
53550;BME280;67273;52.914;-0.982;2023-03-21T00:10:04;100682.88;;;19.37;45.91
53550;BME280;67273;52.914;-0.982;2023-03-21T00:12:31;100676.84;;;19.35;46.02
53550;BME280;67273;52.914;-0.982;2023-03-21T00:15:03;100683.13;;;19.35;45.96
53550;BME280;67273;52.914;-0.982;2023-03-21T00:17:30;100671.41;;;19.35;46.01
53550;BME280;67273;52.914;-0.982;2023-03-21T00:19:56;100677.91;;;19.34;45.84
53550;BME280;67273;52.914;-0.982;2023-03-21T00:22:22;100675.19;;;19.34;45.98
53550;BME280;67273;52.914;-0.982;2023-03-21T00:24:48;100668.09;;;19.33;45.98
53550;BME280;67273;52.914;-0.982;2023-03-21T00:27:14;100662.66;;;19.33;45.96
53550;BME280;67273;52.914;-0.982;2023-03-21T00:29:41;100659.31;;;19.31;45.96
53550;BME280;67273;52.914;-0.982;2023-03-21T00:32:08;100659.31;;;19.31;45.92
53550;BME280;67273;52.914;-0.982;2023-03-21T00:34:33;100652.22;;;19.30;45.97
53550;BME280;67273;52.914;-0.982;2023-03-21T00:36:59;100651.41;;;19.29;45.95
53550;BME280;67273;52.914;-0.982;2023-03-21T00:39:26;100656.00;;;19.29;45.97
53550;BME280;67273;52.914;-0.982;2023-03-21T00:41:51;100653.28;;;19.29;46.04
53550;BME280;67273;52.914;-0.982;2023-03-21T00:44:17;100654.38;;;19.28;45.86
53550;BME280;67273;52.914;-0.982;2023-03-21T00:46:44;100643.47;;;19.28;45.89
53550;BME280;67273;52.914;-0.982;2023-03-21T00:49:10;100626.53;;;19.26;45.94
53550;BME280;67273;52.914;-0.982;2023-03-21T00:51:36;100633.63;;;19.27;45.95
53550;BME280;67273;52.914;-0.982;2023-03-21T00:54:01;100630.34;;;19.25;45.80
53550;BME280;67273;52.914;-0.982;2023-03-21T00:56:30;100627.63;;;19.25;45.91
53550;BME280;67273;52.914;-0.982;2023-03-21T00:58:55;100630.34;;;19.25;45.90
53550;BME280;67273;52.914;-0.982;2023-03-21T01:01:21;100616.72;;;19.25;45.87
53550;BME280;67273;52.914;-0.982;2023-03-21T01:03:48;100611.28;;;19.25;45.84
53550;BME280;67273;52.914;-0.982;2023-03-21T01:06:17;100613.41;;;19.23;45.85
53550;BME280;67273;52.914;-0.982;2023-03-21T01:08:45;100607.97;;;19.23;45.95
53550;BME280;67273;52.914;-0.982;2023-03-21T01:11:13;100606.31;;;19.22;45.97
53550;BME280;67273;52.914;-0.982;2023-03-21T01:13:40;100597.56;;;19.19;45.94
53550;BME280;67273;52.914;-0.982;2023-03-21T01:16:07;100607.38;;;19.21;45.81
53550;BME280;67273;52.914;-0.982;2023-03-21T01:18:34;100595.66;;;19.20;46.00
53550;BME280;67273;52.914;-0.982;2023-03-21T01:21:06;100579.53;;;19.18;45.95
53550;BME280;67273;52.914;-0.982;2023-03-21T01:23:33;100578.72;;;19.18;45.82
53550;BME280;67273;52.914;-0.982;2023-03-21T01:25:58;100572.47;;;19.17;45.89
53550;BME280;67273;52.914;-0.982;2023-03-21T01:28:25;100572.47;;;19.17;45.73
53550;BME280;67273;52.914;-0.982;2023-03-21T01:30:52;100566.19;;;19.17;45.92
53550;BME280;67273;52.914;-0.982;2023-03-21T01:33:18;100555.56;;;19.15;46.01
53550;BME280;67273;52.914;-0.982;2023-03-21T01:35:45;100551.16;;;19.14;45.97
53550;BME280;67273;52.914;-0.982;2023-03-21T01:38:12;100547.38;;;19.15;45.86
53550;BME280;67273;52.914;-0.982;2023-03-21T01:40:43;100537.53;;;19.14;46.02
53550;BME280;67273;52.914;-0.982;2023-03-21T01:43:25;100548.44;;;19.14;45.93
53550;BME280;67273;52.914;-0.982;2023-03-21T01:46:16;100535.91;;;19.13;45.99
53550;BME280;67273;52.914;-0.982;2023-03-21T01:49:10;100533.19;;;19.13;46.03
53550;BME280;67273;52.914;-0.982;2023-03-21T01:51:40;100520.63;;;19.12;45.92
53550;BME280;67273;52.914;-0.982;2023-03-21T01:54:11;100521.69;;;19.11;46.09
53550;BME280;67273;52.914;-0.982;2023-03-21T01:56:39;100526.31;;;19.11;45.83
53550;BME280;67273;52.914;-0.982;2023-03-21T01:59:16;100521.97;;;19.10;46.02
53550;BME280;67273;52.914;-0.982;2023-03-21T02:02:08;100510.22;;;19.09;45.98
53550;BME280;67273;52.914;-0.982;2023-03-21T02:04:43;100502.06;;;19.09;45.81
53550;BME280;67273;52.914;-0.982;2023-03-21T02:07:24;100500.41;;;19.08;45.92
53550;BME280;67273;52.914;-0.982;2023-03-21T02:10:00;100496.84;;;19.08;46.08
53550;BME280;67273;52.914;-0.982;2023-03-21T02:12:27;100506.91;;;19.07;46.00
53550;BME280;67273;52.914;-0.982;2023-03-21T02:14:56;100492.50;;;19.07;45.99
53550;BME280;67273;52.914;-0.982;2023-03-21T02:17:32;100499.84;;;19.06;45.85
53550;BME280;67273;52.914;-0.982;2023-03-21T02:28:59;100491.91;;;19.05;45.95
53550;BME280;67273;52.914;-0.982;2023-03-21T02:31:36;100484.81;;;19.04;45.99
53550;BME280;67273;52.914;-0.982;2023-03-21T02:34:49;100489.44;;;19.03;45.89
53550;BME280;67273;52.914;-0.982;2023-03-21T02:37:24;100484.22;;;19.02;46.02
53550;BME280;67273;52.914;-0.982;2023-03-21T02:40:00;100482.31;;;19.02;45.89
53550;BME280;67273;52.914;-0.982;2023-03-21T02:42:43;100476.06;;;19.02;46.06
53550;BME280;67273;52.914;-0.982;2023-03-21T02:45:16;100467.31;;;18.99;46.06
53550;BME280;67273;52.914;-0.982;2023-03-21T02:47:54;100457.25;;;19.00;46.07
53550;BME280;67273;52.914;-0.982;2023-03-21T02:50:25;100465.66;;;18.98;45.93
53550;BME280;67273;52.914;-0.982;2023-03-21T02:52:58;100465.66;;;18.98;45.98
53550;BME280;67273;52.914;-0.982;2023-03-21T02:55:32;100460.22;;;18.98;45.92
53550;BME280;67273;52.914;-0.982;2023-03-21T02:58:04;100448.50;;;18.98;46.11
53550;BME280;67273;52.914;-0.982;2023-03-21T03:00:32;100452.28;;;18.97;45.96
53550;BME280;67273;52.914;-0.982;2023-03-21T03:02:59;100455.00;;;18.97;45.90
53550;BME280;67273;52.914;-0.982;2023-03-21T03:05:29;100451.47;;;18.96;46.00
53550;BME280;67273;52.914;-0.982;2023-03-21T03:08:07;100453.38;;;18.96;46.03
53550;BME280;67273;52.914;-0.982;2023-03-21T03:10:44;100446.25;;;18.95;46.09
53550;BME280;67273;52.914;-0.982;2023-03-21T03:13:23;100450.88;;;18.94;45.83
53550;BME280;67273;52.914;-0.982;2023-03-21T03:16:01;100449.22;;;18.93;46.00
53550;BME280;67273;52.914;-0.982;2023-03-21T03:18:38;100445.69;;;18.93;45.98
53550;BME280;67273;52.914;-0.982;2023-03-21T03:21:11;100445.69;;;18.93;45.92
53550;BME280;67273;52.914;-0.982;2023-03-21T03:23:45;100444.03;;;18.92;45.89
53550;BME280;67273;52.914;-0.982;2023-03-21T03:26:16;100450.31;;;18.92;45.89
53550;BME280;67273;52.914;-0.982;2023-03-21T03:28:47;100445.94;;;18.91;46.00
53550;BME280;67273;52.914;-0.982;2023-03-21T03:31:19;100447.84;;;18.91;45.99
53550;BME280;67273;52.914;-0.982;2023-03-21T03:33:53;100447.03;;;18.90;46.06
53550;BME280;67273;52.914;-0.982;2023-03-21T03:36:23;100440.72;;;18.90;45.98
53550;BME280;67273;52.914;-0.982;2023-03-21T03:38:54;100427.13;;;18.90;46.08
53550;BME280;67273;52.914;-0.982;2023-03-21T03:41:25;100430.09;;;18.88;45.92
53550;BME280;67273;52.914;-0.982;2023-03-21T03:43:58;100425.50;;;18.89;45.89
53550;BME280;67273;52.914;-0.982;2023-03-21T03:46:30;100420.03;;;18.89;46.04
53550;BME280;67273;52.914;-0.982;2023-03-21T03:49:00;100418.38;;;18.88;45.85
53550;BME280;67273;52.914;-0.982;2023-03-21T03:51:33;100427.34;;;18.88;45.97
53550;BME280;67273;52.914;-0.982;2023-03-21T03:54:26;100421.09;;;18.88;45.97
53550;BME280;67273;52.914;-0.982;2023-03-21T03:56:54;100414.03;;;18.87;46.05
53550;BME280;67273;52.914;-0.982;2023-03-21T03:59:20;100412.13;;;18.87;45.83
53550;BME280;67273;52.914;-0.982;2023-03-21T04:02:18;100412.13;;;18.87;45.85
53550;BME280;67273;52.914;-0.982;2023-03-21T04:04:46;100404.19;;;18.86;45.81
53550;BME280;67273;52.914;-0.982;2023-03-21T04:07:13;100401.47;;;18.86;45.85
53550;BME280;67273;52.914;-0.982;2023-03-21T04:09:41;100408.81;;;18.85;45.78
53550;BME280;67273;52.914;-0.982;2023-03-21T04:12:07;100410.69;;;18.85;45.85
53550;BME280;67273;52.914;-0.982;2023-03-21T04:14:34;100404.44;;;18.84;45.87
53550;BME280;67273;52.914;-0.982;2023-03-21T04:17:04;100392.72;;;18.84;45.78
53550;BME280;67273;52.914;-0.982;2023-03-21T04:19:30;100392.72;;;18.84;45.91
53550;BME280;67273;52.914;-0.982;2023-03-21T04:21:59;100389.16;;;18.83;45.93
53550;BME280;67273;52.914;-0.982;2023-03-21T04:24:27;100380.19;;;18.83;45.92
53550;BME280;67273;52.914;-0.982;2023-03-21T04:27:00;100374.75;;;18.83;45.93
53550;BME280;67273;52.914;-0.982;2023-03-21T04:29:53;100380.19;;;18.83;45.92
53550;BME280;67273;52.914;-0.982;2023-03-21T04:32:35;100377.47;;;18.83;45.85
53550;BME280;67273;52.914;-0.982;2023-03-21T04:35:12;100378.56;;;18.82;45.76
53550;BME280;67273;52.914;-0.982;2023-03-21T04:37:42;100367.66;;;18.82;45.86
53550;BME280;67273;52.914;-0.982;2023-03-21T04:40:13;100366.78;;;18.81;45.78
53550;BME280;67273;52.914;-0.982;2023-03-21T04:42:47;100363.84;;;18.83;45.94
53550;BME280;67273;52.914;-0.982;2023-03-21T04:45:17;100360.53;;;18.80;45.88
53550;BME280;67273;52.914;-0.982;2023-03-21T04:47:46;100362.44;;;18.80;45.83
53550;BME280;67273;52.914;-0.982;2023-03-21T04:50:15;100358.88;;;18.79;45.83
53550;BME280;67273;52.914;-0.982;2023-03-21T04:52:44;100358.06;;;18.79;45.87
53550;BME280;67273;52.914;-0.982;2023-03-21T04:55:11;100350.13;;;18.77;45.59
53550;BME280;67273;52.914;-0.982;2023-03-21T04:57:43;100340.91;;;18.78;45.78
53550;BME280;67273;52.914;-0.982;2023-03-21T05:00:16;100340.91;;;18.78;45.91
53550;BME280;67273;52.914;-0.982;2023-03-21T05:02:44;100339.00;;;18.79;45.73
53550;BME280;67273;52.914;-0.982;2023-03-21T05:05:15;100335.69;;;18.77;45.84
53550;BME280;67273;52.914;-0.982;2023-03-21T05:07:43;100339.25;;;18.77;45.79
53550;BME280;67273;52.914;-0.982;2023-03-21T05:10:12;100337.59;;;18.76;45.82
53550;BME280;67273;52.914;-0.982;2023-03-21T05:12:43;100332.97;;;18.77;45.76
53550;BME280;67273;52.914;-0.982;2023-03-21T05:15:14;100334.88;;;18.76;45.83
53550;BME280;67273;52.914;-0.982;2023-03-21T05:17:43;100327.53;;;18.77;45.94
53550;BME280;67273;52.914;-0.982;2023-03-21T05:20:14;100322.34;;;18.75;45.87
53550;BME280;67273;52.914;-0.982;2023-03-21T05:22:42;100325.06;;;18.75;45.65
53550;BME280;67273;52.914;-0.982;2023-03-21T05:25:13;100319.63;;;18.75;45.69
53550;BME280;67273;52.914;-0.982;2023-03-21T05:28:05;100316.31;;;18.73;45.72
53550;BME280;67273;52.914;-0.982;2023-03-21T05:30:36;100310.63;;;18.75;45.91
53550;BME280;67273;52.914;-0.982;2023-03-21T05:33:05;100295.38;;;18.74;45.86
53550;BME280;67273;52.914;-0.982;2023-03-21T05:35:32;100291.84;;;18.73;45.82
53550;BME280;67273;52.914;-0.982;2023-03-21T05:38:03;100289.09;;;18.73;45.86
53550;BME280;67273;52.914;-0.982;2023-03-21T05:40:46;100296.47;;;18.73;45.90
53550;BME280;67273;52.914;-0.982;2023-03-21T05:43:15;100285.81;;;18.71;45.56
53550;BME280;67273;52.914;-0.982;2023-03-21T05:45:45;100298.34;;;18.72;45.86
53550;BME280;67273;52.914;-0.982;2023-03-21T05:48:16;100292.88;;;18.72;45.79
53550;BME280;67273;52.914;-0.982;2023-03-21T05:51:02;100280.38;;;18.71;45.73
53550;BME280;67273;52.914;-0.982;2023-03-21T05:53:31;100288.53;;;18.71;45.75
53550;BME280;67273;52.914;-0.982;2023-03-21T05:55:58;100295.88;;;18.71;45.85
53550;BME280;67273;52.914;-0.982;2023-03-21T05:58:46;100278.72;;;18.70;45.85
53550;BME280;67273;52.914;-0.982;2023-03-21T06:01:15;100289.59;;;18.70;45.91
53550;BME280;67273;52.914;-0.982;2023-03-21T06:03:46;100285.25;;;18.69;45.74
53550;BME280;67273;52.914;-0.982;2023-03-21T06:06:15;100279.81;;;18.69;45.77
53550;BME280;67273;52.914;-0.982;2023-03-21T06:08:50;100272.69;;;18.68;45.72
53550;BME280;67273;52.914;-0.982;2023-03-21T06:11:21;100264.53;;;18.68;45.84
53550;BME280;67273;52.914;-0.982;2023-03-21T06:13:49;100269.97;;;18.68;45.82
53550;BME280;67273;52.914;-0.982;2023-03-21T06:16:16;100268.34;;;18.67;45.73
53550;BME280;67273;52.914;-0.982;2023-03-21T06:18:42;100263.72;;;18.68;46.09
53550;BME280;67273;52.914;-0.982;2023-03-21T06:21:38;100271.06;;;18.67;45.70
53550;BME280;67273;52.914;-0.982;2023-03-21T06:24:06;100271.06;;;18.67;45.76
53550;BME280;67273;52.914;-0.982;2023-03-21T06:26:32;100262.91;;;18.67;45.93
53550;BME280;67273;52.914;-0.982;2023-03-21T06:28:59;100271.06;;;18.67;45.77
53550;BME280;67273;52.914;-0.982;2023-03-21T06:31:27;100279.22;;;18.67;45.76
53550;BME280;67273;52.914;-0.982;2023-03-21T06:33:59;100274.03;;;18.66;45.75
53550;BME280;67273;52.914;-0.982;2023-03-21T06:36:25;100276.75;;;18.66;45.85
53550;BME280;67273;52.914;-0.982;2023-03-21T06:38:51;100279.22;;;18.67;45.67
53550;BME280;67273;52.914;-0.982;2023-03-21T06:41:17;100280.38;;;18.71;45.62
53550;BME280;67273;52.914;-0.982;2023-03-21T06:43:53;100262.22;;;18.77;45.54
53550;BME280;67273;52.914;-0.982;2023-03-21T06:46:19;100257.69;;;18.83;45.36
53550;BME280;67273;52.914;-0.982;2023-03-21T06:48:46;100255.63;;;18.90;45.30
53550;BME280;67273;52.914;-0.982;2023-03-21T06:51:14;100244.56;;;18.96;45.46
53550;BME280;67273;52.914;-0.982;2023-03-21T06:53:51;100244.38;;;19.03;44.99
53550;BME280;67273;52.914;-0.982;2023-03-21T06:56:24;100252.09;;;19.11;44.94
53550;BME280;67273;52.914;-0.982;2023-03-21T06:58:50;100252.25;;;19.22;44.77
53550;BME280;67273;52.914;-0.982;2023-03-21T07:01:35;100252.88;;;19.29;44.70
53550;BME280;67273;52.914;-0.982;2023-03-21T07:04:06;100251.34;;;19.38;44.58
53550;BME280;67273;52.914;-0.982;2023-03-21T07:06:33;100260.69;;;19.42;44.55
53550;BME280;67273;52.914;-0.982;2023-03-21T07:08:59;100268.31;;;19.45;44.60
53550;BME280;67273;52.914;-0.982;2023-03-21T07:11:25;100278.72;;;19.48;44.51
53550;BME280;67273;52.914;-0.982;2023-03-21T07:13:51;100270.28;;;19.50;44.58
53550;BME280;67273;52.914;-0.982;2023-03-21T07:16:18;100272.78;;;19.51;44.72
53550;BME280;67273;52.914;-0.982;2023-03-21T07:18:46;100275.50;;;19.51;44.55
53550;BME280;67273;52.914;-0.982;2023-03-21T07:21:13;100290.78;;;19.52;44.68
53550;BME280;67273;52.914;-0.982;2023-03-21T07:23:39;100285.34;;;19.52;44.62
53550;BME280;67273;52.914;-0.982;2023-03-21T07:26:06;100282.31;;;19.54;44.67
53550;BME280;67273;52.914;-0.982;2023-03-21T07:28:33;100279.34;;;19.55;44.62
53550;BME280;67273;52.914;-0.982;2023-03-21T07:31:00;100270.09;;;19.56;44.54
53550;BME280;67273;52.914;-0.982;2023-03-21T07:33:27;100270.91;;;19.57;44.60
53550;BME280;67273;52.914;-0.982;2023-03-21T07:35:57;100270.09;;;19.56;44.64
53550;BME280;67273;52.914;-0.982;2023-03-21T07:38:25;100271.75;;;19.57;44.74
53550;BME280;67273;52.914;-0.982;2023-03-21T07:40:52;100259.22;;;19.56;44.60
53550;BME280;67273;52.914;-0.982;2023-03-21T07:43:18;100237.41;;;19.56;44.85
53550;BME280;67273;52.914;-0.982;2023-03-21T07:45:44;100239.03;;;19.57;44.79
53550;BME280;67273;52.914;-0.982;2023-03-21T07:48:11;100244.50;;;19.57;44.71
53550;BME280;67273;52.914;-0.982;2023-03-21T07:50:37;100247.22;;;19.57;44.71
53550;BME280;67273;52.914;-0.982;2023-03-21T07:53:05;100253.50;;;19.58;44.69
53550;BME280;67273;52.914;-0.982;2023-03-21T07:55:32;100254.31;;;19.59;44.73
53550;BME280;67273;52.914;-0.982;2023-03-21T07:57:59;100261.69;;;19.58;44.61
53550;BME280;67273;52.914;-0.982;2023-03-21T08:00:25;100257.03;;;19.59;44.70
53550;BME280;67273;52.914;-0.982;2023-03-21T08:02:52;100252.41;;;19.59;44.86
53550;BME280;67273;52.914;-0.982;2023-03-21T08:05:20;100253.50;;;19.58;44.82
53550;BME280;67273;52.914;-0.982;2023-03-21T08:07:46;100252.66;;;19.57;44.75
53550;BME280;67273;52.914;-0.982;2023-03-21T08:10:12;100244.50;;;19.57;44.72
53550;BME280;67273;52.914;-0.982;2023-03-21T08:12:39;100242.59;;;19.58;44.71
53550;BME280;67273;52.914;-0.982;2023-03-21T08:15:06;100247.22;;;19.57;44.59
53550;BME280;67273;52.914;-0.982;2023-03-21T08:17:32;100247.22;;;19.57;44.88
53550;BME280;67273;52.914;-0.982;2023-03-21T08:19:58;100244.50;;;19.57;44.72
53550;BME280;67273;52.914;-0.982;2023-03-21T08:22:24;100239.03;;;19.57;44.76
53550;BME280;67273;52.914;-0.982;2023-03-21T08:24:50;100233.88;;;19.56;44.74
53550;BME280;67273;52.914;-0.982;2023-03-21T08:27:15;100233.59;;;19.57;44.80
53550;BME280;67273;52.914;-0.982;2023-03-21T08:29:42;100226.00;;;19.60;45.39
53550;BME280;67273;52.914;-0.982;2023-03-21T08:32:08;100236.19;;;19.69;46.19
53550;BME280;67273;52.914;-0.982;2023-03-21T08:34:34;100234.66;;;19.79;46.51
53550;BME280;67273;52.914;-0.982;2023-03-21T08:37:00;100236.88;;;19.82;46.64
53550;BME280;67273;52.914;-0.982;2023-03-21T08:39:26;100243.09;;;19.77;47.23
53550;BME280;67273;52.914;-0.982;2023-03-21T08:41:53;100237.19;;;19.85;47.67
53550;BME280;67273;52.914;-0.982;2023-03-21T08:44:19;100229.13;;;19.96;47.87
53550;BME280;67273;52.914;-0.982;2023-03-21T08:46:48;100235.19;;;20.03;47.75
53550;BME280;67273;52.914;-0.982;2023-03-21T08:49:13;100224.84;;;20.05;47.30
53550;BME280;67273;52.914;-0.982;2023-03-21T08:51:39;100224.06;;;20.09;47.43
53550;BME280;67273;52.914;-0.982;2023-03-21T08:54:05;100222.47;;;20.13;47.42
53550;BME280;67273;52.914;-0.982;2023-03-21T08:56:31;100216.19;;;20.13;47.29
53550;BME280;67273;52.914;-0.982;2023-03-21T08:58:57;100225.75;;;20.16;47.26
53550;BME280;67273;52.914;-0.982;2023-03-21T09:01:23;100221.94;;;20.17;47.16
53550;BME280;67273;52.914;-0.982;2023-03-21T09:03:50;100223.31;;;20.19;46.96
53550;BME280;67273;52.914;-0.982;2023-03-21T09:06:16;100223.88;;;20.21;47.18
53550;BME280;67273;52.914;-0.982;2023-03-21T09:08:42;100213.53;;;20.23;47.19
53550;BME280;67273;52.914;-0.982;2023-03-21T09:11:08;100212.19;;;20.26;47.22
53550;BME280;67273;52.914;-0.982;2023-03-21T09:13:34;100214.91;;;20.26;47.27
53550;BME280;67273;52.914;-0.982;2023-03-21T09:16:00;100212.50;;;20.29;47.35
53550;BME280;67273;52.914;-0.982;2023-03-21T09:18:26;100216.84;;;20.30;47.21
53550;BME280;67273;52.914;-0.982;2023-03-21T09:21:14;100229.72;;;20.03;47.69
53550;BME280;67273;52.914;-0.982;2023-03-21T09:23:40;100225.78;;;19.88;47.87
53550;BME280;67273;52.914;-0.982;2023-03-21T09:26:07;100222.44;;;19.81;47.67
53550;BME280;67273;52.914;-0.982;2023-03-21T09:28:34;100229.56;;;19.87;49.78
53550;BME280;67273;52.914;-0.982;2023-03-21T09:31:02;100235.19;;;20.03;49.57
53550;BME280;67273;52.914;-0.982;2023-03-21T09:33:28;100224.28;;;20.03;49.38
53550;BME280;67273;52.914;-0.982;2023-03-21T09:35:54;100216.94;;;20.08;49.25
53550;BME280;67273;52.914;-0.982;2023-03-21T09:38:21;100208.88;;;20.19;48.88
53550;BME280;67273;52.914;-0.982;2023-03-21T09:40:59;100203.72;;;20.22;48.67
53550;BME280;67273;52.914;-0.982;2023-03-21T09:43:38;100196.63;;;20.26;48.75
53550;BME280;67273;52.914;-0.982;2023-03-21T09:46:09;100198.84;;;20.29;48.47
53550;BME280;67273;52.914;-0.982;2023-03-21T09:48:42;100204.06;;;20.31;48.53
53550;BME280;67273;52.914;-0.982;2023-03-21T09:51:13;100204.34;;;20.35;48.50
53550;BME280;67273;52.914;-0.982;2023-03-21T09:53:43;100194.00;;;20.37;48.47
53550;BME280;67273;52.914;-0.982;2023-03-21T09:56:12;100183.59;;;20.33;48.48
53550;BME280;67273;52.914;-0.982;2023-03-21T09:58:42;100176.81;;;20.36;48.54
53550;BME280;67273;52.914;-0.982;2023-03-21T10:01:14;100172.72;;;20.39;48.54
53550;BME280;67273;52.914;-0.982;2023-03-21T10:03:47;100183.13;;;20.42;48.57
53550;BME280;67273;52.914;-0.982;2023-03-21T10:06:15;100166.44;;;20.38;48.65
53550;BME280;67273;52.914;-0.982;2023-03-21T10:08:45;100166.72;;;20.37;48.78
53550;BME280;67273;52.914;-0.982;2023-03-21T10:11:16;100170.25;;;20.37;48.59
53550;BME280;67273;52.914;-0.982;2023-03-21T10:13:48;100174.38;;;20.40;48.65
53550;BME280;67273;52.914;-0.982;2023-03-21T10:16:18;100165.91;;;20.36;48.75
53550;BME280;67273;52.914;-0.982;2023-03-21T10:18:45;100166.72;;;20.37;48.53
53550;BME280;67273;52.914;-0.982;2023-03-21T10:21:19;100162.63;;;20.39;48.49
53550;BME280;67273;52.914;-0.982;2023-03-21T10:23:49;100171.66;;;20.40;48.53
53550;BME280;67273;52.914;-0.982;2023-03-21T10:26:18;100165.09;;;20.41;48.56
53550;BME280;67273;52.914;-0.982;2023-03-21T10:28:46;100170.53;;;20.41;48.41
53550;BME280;67273;52.914;-0.982;2023-03-21T10:31:15;100171.38;;;20.41;48.33
53550;BME280;67273;52.914;-0.982;2023-03-21T10:33:45;100176.56;;;20.43;48.09
53550;BME280;67273;52.914;-0.982;2023-03-21T10:36:15;100176.56;;;20.43;48.25
53550;BME280;67273;52.914;-0.982;2023-03-21T10:38:45;100160.63;;;20.24;48.44
53550;BME280;67273;52.914;-0.982;2023-03-21T10:41:13;100167.19;;;20.28;48.87
53550;BME280;67273;52.914;-0.982;2023-03-21T10:43:40;100170.53;;;20.41;48.56
53550;BME280;67273;52.914;-0.982;2023-03-21T10:46:10;100183.16;;;20.47;48.43
53550;BME280;67273;52.914;-0.982;2023-03-21T10:48:39;100174.41;;;20.50;48.35
53550;BME280;67273;52.914;-0.982;2023-03-21T10:51:07;100180.72;;;20.50;48.31
53550;BME280;67273;52.914;-0.982;2023-03-21T10:53:36;100177.72;;;20.52;48.21
53550;BME280;67273;52.914;-0.982;2023-03-21T10:56:07;100161.34;;;20.52;48.10
53550;BME280;67273;52.914;-0.982;2023-03-21T10:58:39;100155.91;;;20.52;47.99
53550;BME280;67273;52.914;-0.982;2023-03-21T11:01:09;100148.28;;;20.54;48.05
53550;BME280;67273;52.914;-0.982;2023-03-21T11:03:41;100140.38;;;20.58;47.94
53550;BME280;67273;52.914;-0.982;2023-03-21T11:06:14;100142.84;;;20.59;47.90
53550;BME280;67273;52.914;-0.982;2023-03-21T11:08:44;100145.66;;;20.32;48.10
53550;BME280;67273;52.914;-0.982;2023-03-21T11:11:18;100139.78;;;20.08;49.41
53550;BME280;67273;52.914;-0.982;2023-03-21T11:13:55;100138.22;;;20.17;50.41
53550;BME280;67273;52.914;-0.982;2023-03-21T11:16:24;100140.28;;;20.95;49.43
53550;BME280;67273;52.914;-0.982;2023-03-21T11:18:58;100125.72;;;21.53;48.05
53550;BME280;67273;52.914;-0.982;2023-03-21T11:21:24;100123.28;;;21.82;47.07
53550;BME280;67273;52.914;-0.982;2023-03-21T11:23:53;100119.97;;;22.06;46.69
53550;BME280;67273;52.914;-0.982;2023-03-21T11:26:25;100118.06;;;22.06;46.33
53550;BME280;67273;52.914;-0.982;2023-03-21T11:28:53;100115.63;;;21.89;46.64
53550;BME280;67273;52.914;-0.982;2023-03-21T11:31:20;100126.81;;;21.88;46.68
53550;BME280;67273;52.914;-0.982;2023-03-21T11:33:51;100120.81;;;21.91;46.65
53550;BME280;67273;52.914;-0.982;2023-03-21T11:36:30;100125.72;;;21.94;46.53
53550;BME280;67273;52.914;-0.982;2023-03-21T11:39:12;100128.47;;;21.99;46.31
53550;BME280;67273;52.914;-0.982;2023-03-21T11:41:40;100132.56;;;22.01;46.24
53550;BME280;67273;52.914;-0.982;2023-03-21T11:44:25;100126.53;;;22.05;45.91
53550;BME280;67273;52.914;-0.982;2023-03-21T11:46:51;100140.47;;;22.08;45.89
53550;BME280;67273;52.914;-0.982;2023-03-21T11:49:17;100145.13;;;22.13;45.77
53550;BME280;67273;52.914;-0.982;2023-03-21T11:51:48;100140.47;;;22.13;45.77
53550;BME280;67273;52.914;-0.982;2023-03-21T11:54:25;100148.41;;;22.15;45.71
53550;BME280;67273;52.914;-0.982;2023-03-21T11:56:54;100142.13;;;22.14;45.38
53550;BME280;67273;52.914;-0.982;2023-03-21T11:59:35;100150.06;;;22.16;45.47
53550;BME280;67273;52.914;-0.982;2023-03-21T12:02:15;100138.84;;;22.17;45.25
53550;BME280;67273;52.914;-0.982;2023-03-21T12:04:46;100141.31;;;22.19;45.00
53550;BME280;67273;52.914;-0.982;2023-03-21T12:07:26;100128.44;;;22.19;45.05
53550;BME280;67273;52.914;-0.982;2023-03-21T12:10:14;100118.56;;;22.24;44.81
53550;BME280;67273;52.914;-0.982;2023-03-21T12:12:49;100124.63;;;22.10;45.27
53550;BME280;67273;52.914;-0.982;2023-03-21T12:15:25;100122.03;;;21.06;47.39
53550;BME280;67273;52.914;-0.982;2023-03-21T12:18:01;100115.53;;;20.54;48.98
53550;BME280;67273;52.914;-0.982;2023-03-21T12:20:41;100103.19;;;20.41;49.17
53550;BME280;67273;52.914;-0.982;2023-03-21T12:23:35;100097.41;;;20.32;49.34
53550;BME280;67273;52.914;-0.982;2023-03-21T12:26:13;100098.72;;;20.30;49.50
53550;BME280;67273;52.914;-0.982;2023-03-21T12:28:53;100105.53;;;20.27;49.78
53550;BME280;67273;52.914;-0.982;2023-03-21T12:31:30;100104.41;;;20.23;49.77
53550;BME280;67273;52.914;-0.982;2023-03-21T12:34:08;100094.03;;;20.20;50.22
53550;BME280;67273;52.914;-0.982;2023-03-21T12:36:46;100097.03;;;20.19;50.43
53550;BME280;67273;52.914;-0.982;2023-03-21T12:39:23;100098.44;;;20.26;50.87
53550;BME280;67273;52.914;-0.982;2023-03-21T12:41:59;100095.19;;;20.29;50.04
53550;BME280;67273;52.914;-0.982;2023-03-21T12:44:33;100094.09;;;20.30;49.84
53550;BME280;67273;52.914;-0.982;2023-03-21T12:47:05;100091.34;;;20.30;49.76
53550;BME280;67273;52.914;-0.982;2023-03-21T12:49:37;100091.34;;;20.30;49.43
53550;BME280;67273;52.914;-0.982;2023-03-21T12:52:06;100087.81;;;20.30;49.61
53550;BME280;67273;52.914;-0.982;2023-03-21T12:54:37;100094.09;;;20.30;49.58
53550;BME280;67273;52.914;-0.982;2023-03-21T12:57:07;100092.88;;;20.59;50.47
53550;BME280;67273;52.914;-0.982;2023-03-21T12:59:38;100082.94;;;20.95;49.84
53550;BME280;67273;52.914;-0.982;2023-03-21T13:02:16;100082.97;;;21.16;49.14
53550;BME280;67273;52.914;-0.982;2023-03-21T13:04:51;100081.91;;;21.22;48.75
53550;BME280;67273;52.914;-0.982;2023-03-21T13:07:22;100075.34;;;21.28;48.64